createdAt,value
2018-07-04T00:00:09.027Z,51.40
2018-07-04T00:03:00.543Z,50.50
2018-07-04T00:05:51.727Z,50.70
2018-07-04T00:08:43.011Z,51.10
2018-07-04T00:11:34.066Z,51.60
2018-07-04T00:14:25.334Z,51.50
2018-07-04T00:17:16.363Z,51.50
2018-07-04T00:22:52.820Z,51.50
2018-07-04T00:25:43.916Z,51.30
2018-07-04T00:28:35.251Z,51.40
2018-07-04T00:31:26.230Z,51.60
2018-07-04T00:34:17.290Z,52.00
2018-07-04T00:37:08.362Z,52.10
2018-07-04T00:39:59.798Z,51.70
2018-07-04T00:42:51.105Z,51.70
2018-07-04T00:45:42.398Z,51.90
2018-07-04T00:48:33.759Z,52.10
2018-07-04T00:51:25.019Z,52.10
2018-07-04T00:54:16.020Z,52.10
2018-07-04T00:57:07.265Z,51.70
2018-07-04T01:02:43.858Z,51.60
2018-07-04T01:05:35.168Z,51.70
2018-07-04T01:08:26.369Z,51.90
2018-07-04T01:11:17.540Z,52.10
2018-07-04T01:16:54.209Z,52.50
2018-07-04T01:19:45.487Z,52.50
2018-07-04T01:22:36.777Z,53.00
2018-07-04T01:25:28.170Z,53.40
2018-07-04T01:28:21.127Z,53.50
2018-07-04T01:31:12.197Z,53.10
2018-07-04T01:34:03.460Z,53.10
2018-07-04T01:36:54.797Z,53.00
2018-07-04T01:39:46.105Z,53.50
2018-07-04T01:42:37.376Z,53.50
2018-07-04T01:45:28.615Z,53.70
2018-07-04T01:53:50.910Z,54.30
2018-07-04T01:56:42.070Z,54.50
2018-07-04T01:59:33.266Z,54.40
2018-07-04T02:02:24.486Z,54.80
2018-07-04T02:05:15.745Z,55.00
2018-07-04T02:08:06.722Z,55.00
2018-07-04T02:10:57.801Z,55.10
2018-07-04T02:13:48.996Z,55.50
2018-07-04T02:16:40.265Z,55.60
2018-07-04T02:19:32.147Z,55.60
2018-07-04T02:22:23.435Z,55.90
2018-07-04T02:25:14.707Z,55.70
2018-07-04T02:28:06.035Z,56.10
2018-07-04T02:30:57.347Z,56.20
2018-07-04T02:33:48.663Z,56.10
2018-07-04T02:36:39.901Z,56.10
2018-07-04T02:42:16.816Z,55.70
2018-07-04T02:45:08.152Z,56.00
2018-07-04T02:47:59.303Z,56.30
2018-07-04T02:50:50.615Z,56.10
2018-07-04T02:53:42.038Z,56.40
2018-07-04T02:56:33.240Z,56.50
2018-07-04T02:59:24.509Z,56.40
2018-07-04T03:02:15.863Z,56.30
2018-07-04T03:05:07.051Z,56.10
2018-07-04T03:07:58.229Z,56.20
2018-07-04T03:10:49.537Z,56.10
2018-07-04T03:13:40.822Z,56.20
2018-07-04T03:16:32.175Z,56.10
2018-07-04T03:19:23.329Z,56.10
2018-07-04T03:22:14.669Z,56.00
2018-07-04T03:25:05.913Z,56.30
2018-07-04T03:27:56.929Z,56.00
2018-07-04T03:30:48.161Z,56.10
2018-07-04T03:33:39.449Z,56.20
2018-07-04T03:36:30.671Z,55.80
2018-07-04T03:39:21.992Z,55.50
2018-07-04T03:42:13.315Z,55.60
2018-07-04T03:45:04.586Z,55.40
2018-07-04T03:47:55.850Z,55.10
2018-07-04T03:50:47.110Z,55.10
2018-07-04T03:53:38.430Z,55.90
2018-07-04T03:56:29.739Z,55.70
2018-07-04T03:59:21.053Z,55.70
2018-07-04T04:02:12.932Z,55.50
2018-07-04T04:05:04.195Z,55.60
2018-07-04T04:07:55.445Z,55.80
2018-07-04T04:10:46.791Z,55.70
2018-07-04T04:13:38.067Z,55.50
2018-07-04T04:16:29.389Z,55.90
2018-07-04T04:19:26.888Z,56.00
2018-07-04T04:22:18.174Z,55.80
2018-07-04T04:25:09.247Z,55.60
2018-07-04T04:28:00.553Z,55.70
2018-07-04T04:30:51.915Z,55.80
2018-07-04T04:33:43.171Z,56.00
2018-07-04T04:36:34.487Z,56.20
2018-07-04T04:39:25.863Z,55.80
2018-07-04T04:42:17.109Z,55.40
2018-07-04T04:45:08.391Z,55.50
2018-07-04T04:47:59.670Z,55.70
2018-07-04T04:50:50.779Z,55.80
2018-07-04T04:53:41.968Z,55.40
2018-07-04T04:56:34.241Z,55.70
2018-07-04T04:59:25.569Z,55.80
2018-07-04T05:02:16.894Z,55.60
2018-07-04T05:05:08.125Z,55.60
2018-07-04T05:07:59.429Z,55.70
2018-07-04T05:10:50.826Z,55.60
2018-07-04T05:13:42.198Z,55.50
2018-07-04T05:16:33.458Z,54.90
2018-07-04T05:19:24.731Z,54.70
2018-07-04T05:22:15.985Z,54.70
2018-07-04T05:25:07.434Z,54.60
2018-07-04T05:27:58.431Z,55.20
2018-07-04T05:30:49.544Z,55.00
2018-07-04T05:33:40.785Z,55.60
2018-07-04T05:36:31.885Z,55.60
2018-07-04T05:39:23.166Z,55.60
2018-07-04T05:42:17.071Z,55.40
2018-07-04T05:45:08.336Z,55.00
2018-07-04T05:47:59.655Z,54.50
2018-07-04T05:50:50.897Z,54.40
2018-07-04T05:53:42.007Z,54.20
2018-07-04T05:56:33.947Z,53.90
2018-07-04T05:59:25.193Z,53.50
2018-07-04T06:02:16.296Z,53.90
2018-07-04T06:05:07.671Z,54.00
2018-07-04T06:08:00.091Z,54.50
2018-07-04T06:10:51.396Z,55.30
2018-07-04T06:13:42.538Z,54.50
2018-07-04T06:16:33.757Z,53.80
2018-07-04T06:19:25.038Z,53.80
2018-07-04T06:22:16.473Z,54.10
2018-07-04T06:25:07.777Z,54.30
2018-07-04T06:27:58.983Z,54.40
2018-07-04T06:30:50.044Z,54.80
2018-07-04T06:33:41.318Z,54.50
2018-07-04T06:36:32.668Z,54.50
2018-07-04T06:39:05.540Z,54.80
2018-07-04T06:41:31.845Z,54.40
2018-07-04T06:46:25.014Z,53.50
2018-07-04T06:48:51.712Z,53.10
2018-07-04T06:51:18.013Z,52.80
2018-07-04T06:53:44.335Z,52.70
2018-07-04T06:56:10.667Z,52.40
2018-07-04T06:58:37.260Z,52.20
2018-07-04T07:01:04.258Z,51.40
2018-07-04T07:03:49.102Z,51.10
2018-07-04T07:06:40.395Z,50.90
2018-07-04T07:09:31.977Z,50.80
2018-07-04T07:12:23.333Z,50.60
2018-07-04T07:15:14.608Z,51.20
2018-07-04T07:18:06.909Z,50.70
2018-07-04T07:20:58.057Z,50.70
2018-07-04T07:23:49.750Z,50.30
2018-07-04T07:26:41.574Z,49.80
2018-07-04T07:29:32.796Z,49.70
2018-07-04T07:32:23.943Z,49.60
2018-07-04T07:35:15.266Z,47.50
2018-07-04T07:40:52.066Z,47.00
2018-07-04T07:43:43.138Z,45.70
2018-07-04T07:46:34.311Z,44.10
2018-07-04T07:49:25.651Z,42.50
2018-07-04T07:52:16.664Z,41.50
2018-07-04T07:55:07.996Z,40.30
2018-07-04T07:57:59.143Z,39.20
2018-07-04T08:00:50.458Z,37.60
2018-07-04T08:03:41.787Z,38.00
2018-07-04T08:06:33.003Z,37.10
2018-07-04T08:09:24.304Z,35.90
2018-07-04T08:12:15.954Z,35.00
2018-07-04T08:15:07.109Z,35.00
2018-07-04T08:17:58.377Z,34.30
2018-07-04T08:20:49.397Z,34.20
2018-07-04T08:26:26.575Z,33.40
2018-07-04T08:29:17.674Z,33.20
2018-07-04T08:34:54.518Z,31.60
2018-07-04T08:37:45.777Z,31.80
2018-07-04T08:40:36.966Z,31.80
2018-07-04T08:43:28.230Z,30.70
2018-07-04T08:46:19.307Z,30.40
2018-07-04T08:49:10.564Z,29.50
2018-07-04T08:52:01.700Z,29.10
2018-07-04T08:54:52.937Z,28.90
2018-07-04T08:57:44.019Z,28.50
2018-07-04T09:00:35.324Z,28.20
2018-07-04T09:03:26.622Z,28.40
2018-07-04T09:06:17.816Z,27.70
2018-07-04T09:09:09.119Z,27.20
2018-07-04T09:12:00.162Z,27.20
2018-07-04T09:14:51.464Z,26.60
2018-07-04T09:17:42.622Z,26.30
2018-07-04T09:20:33.721Z,26.20
2018-07-04T09:23:24.925Z,26.00
2018-07-04T09:26:16.199Z,26.10
2018-07-04T09:29:07.267Z,25.30
2018-07-04T09:31:58.585Z,25.00
2018-07-04T09:34:49.640Z,25.20
2018-07-04T09:37:40.856Z,25.70
2018-07-04T09:40:32.126Z,25.90
2018-07-04T09:43:23.422Z,25.00
2018-07-04T09:46:14.751Z,25.20
2018-07-04T09:49:06.033Z,24.70
2018-07-04T09:51:57.391Z,24.30
2018-07-04T09:54:48.653Z,24.70
2018-07-04T10:00:28.484Z,24.30
2018-07-04T10:03:19.642Z,23.80
2018-07-04T10:06:10.842Z,23.80
2018-07-04T10:09:02.434Z,23.00
2018-07-04T10:11:54.309Z,23.00
2018-07-04T10:14:45.406Z,22.60
2018-07-04T10:17:36.722Z,22.40
2018-07-04T10:20:27.906Z,22.10
2018-07-04T10:23:19.158Z,22.20
2018-07-04T10:26:10.579Z,22.80
2018-07-04T10:29:01.809Z,22.40
2018-07-04T10:31:53.159Z,22.20
2018-07-04T10:34:44.397Z,22.50
2018-07-04T10:37:35.754Z,22.50
2018-07-04T10:40:27.034Z,23.80
2018-07-04T10:43:18.779Z,23.40
2018-07-04T10:46:10.094Z,24.00
2018-07-04T10:49:01.329Z,23.30
2018-07-04T10:51:52.695Z,23.40
2018-07-04T10:54:43.937Z,23.40
2018-07-04T10:57:35.298Z,23.50
2018-07-04T11:00:26.453Z,24.20
2018-07-04T11:03:17.702Z,24.80
2018-07-04T11:06:08.780Z,25.40
2018-07-04T11:08:59.790Z,26.00
2018-07-04T11:11:50.994Z,26.30
2018-07-04T11:14:42.091Z,26.50
2018-07-04T11:17:33.593Z,26.10
2018-07-04T11:20:25.598Z,26.10
2018-07-04T11:23:17.007Z,25.90
2018-07-04T11:26:08.321Z,26.40
2018-07-04T11:28:59.559Z,25.80
2018-07-04T11:31:50.896Z,25.80
2018-07-04T11:34:42.109Z,25.90
2018-07-04T11:37:33.241Z,26.30
2018-07-04T11:40:24.519Z,26.40
2018-07-04T11:43:15.775Z,26.30
2018-07-04T11:45:56.034Z,25.60
2018-07-04T11:48:23.220Z,32.00
2018-07-04T11:50:49.838Z,35.10
2018-07-04T11:53:16.319Z,48.00
2018-07-04T11:55:42.657Z,43.40
2018-07-04T11:58:08.976Z,35.90
2018-07-04T12:00:35.345Z,34.60
2018-07-04T12:03:12.844Z,34.50
2018-07-04T12:05:57.862Z,32.00
2018-07-04T12:08:30.372Z,31.10
2018-07-04T12:10:57.124Z,28.60
2018-07-04T12:13:24.575Z,28.20
2018-07-04T12:15:51.339Z,27.50
2018-07-04T12:18:17.662Z,25.90
2018-07-04T12:20:44.448Z,25.90
2018-07-04T12:23:11.460Z,25.40
2018-07-04T12:25:38.359Z,25.20
2018-07-04T12:28:04.701Z,25.50
2018-07-04T12:30:30.989Z,24.60
2018-07-04T12:32:57.322Z,23.20
2018-07-04T12:35:23.664Z,22.90
2018-07-04T12:37:49.976Z,22.50
2018-07-04T12:40:16.285Z,21.80
2018-07-04T12:42:42.616Z,21.70
2018-07-04T12:45:08.940Z,21.00
2018-07-04T12:47:35.251Z,21.00
2018-07-04T12:50:01.591Z,21.40
2018-07-04T12:52:27.914Z,21.30
2018-07-04T12:55:12.922Z,20.90
2018-07-04T12:58:04.617Z,21.00
2018-07-04T13:00:56.802Z,20.70
2018-07-04T13:06:33.583Z,21.40
2018-07-04T13:09:24.850Z,21.00
2018-07-04T13:12:16.170Z,20.70
2018-07-04T13:15:07.441Z,20.30
2018-07-04T13:17:59.069Z,19.90
2018-07-04T13:20:50.344Z,19.50
2018-07-04T13:23:41.634Z,19.20
2018-07-04T13:26:32.828Z,18.80
2018-07-04T13:29:24.136Z,18.40
2018-07-04T13:32:16.038Z,18.10
2018-07-04T13:35:07.077Z,17.60
2018-07-04T13:37:58.263Z,17.40
2018-07-04T13:40:49.339Z,17.50
2018-07-04T13:43:40.618Z,17.50
2018-07-04T13:46:32.011Z,17.50
2018-07-04T13:49:23.253Z,16.60
2018-07-04T13:52:14.530Z,16.20
2018-07-04T13:55:05.766Z,16.60
2018-07-04T13:57:57.010Z,16.40
2018-07-04T14:00:48.241Z,16.40
2018-07-04T14:03:39.368Z,16.00
2018-07-04T14:06:30.526Z,16.00
2018-07-04T14:09:21.810Z,16.50
2018-07-04T14:12:13.068Z,16.20
2018-07-04T14:15:04.282Z,16.90
2018-07-04T14:17:55.551Z,16.70
2018-07-04T14:20:46.629Z,16.70
2018-07-04T14:23:37.635Z,16.30
2018-07-04T14:26:28.642Z,15.80
2018-07-04T14:29:19.880Z,15.90
2018-07-04T14:32:11.183Z,16.10
2018-07-04T14:35:02.230Z,16.20
2018-07-04T14:37:53.398Z,16.40
2018-07-04T14:40:44.551Z,16.20
2018-07-04T14:43:35.670Z,16.40
2018-07-04T14:46:26.945Z,16.10
2018-07-04T14:49:18.119Z,15.90
2018-07-04T14:52:09.304Z,15.70
2018-07-04T14:55:00.300Z,16.10
2018-07-04T14:57:51.641Z,16.50
2018-07-04T15:00:42.687Z,16.50
2018-07-04T15:03:34.035Z,16.40
2018-07-04T15:06:25.067Z,17.00
2018-07-04T15:09:16.370Z,17.20
2018-07-04T15:12:07.419Z,17.40
2018-07-04T15:14:58.622Z,17.60
2018-07-04T15:17:49.918Z,17.70
2018-07-04T15:20:41.219Z,17.40
2018-07-04T15:23:32.262Z,17.70
2018-07-04T15:26:23.473Z,18.30
2018-07-04T15:29:15.039Z,18.30
2018-07-04T15:34:51.838Z,18.80
2018-07-04T15:37:44.284Z,19.00
2018-07-04T15:40:35.740Z,19.20
2018-07-04T15:43:26.812Z,19.50
2018-07-04T15:46:18.081Z,19.70
2018-07-04T15:49:14.012Z,20.00
2018-07-04T15:52:05.107Z,19.80
2018-07-04T15:57:41.702Z,20.50
2018-07-04T16:00:32.975Z,21.00
2018-07-04T16:03:24.237Z,21.20
2018-07-04T16:06:15.394Z,21.30
2018-07-04T16:09:06.651Z,21.50
2018-07-04T16:11:57.745Z,21.10
2018-07-04T16:14:48.879Z,21.90
2018-07-04T16:17:40.233Z,22.40
2018-07-04T16:20:31.534Z,22.40
2018-07-04T16:23:22.819Z,22.40
2018-07-04T16:26:13.850Z,23.20
2018-07-04T16:29:04.926Z,23.40
2018-07-04T16:31:56.230Z,23.40
2018-07-04T16:34:47.463Z,23.20
2018-07-04T16:37:38.485Z,23.20
2018-07-04T16:40:29.770Z,23.20
2018-07-04T16:43:21.108Z,23.40
2018-07-04T16:46:12.039Z,23.10
2018-07-04T16:49:03.368Z,23.00
2018-07-04T16:51:54.679Z,23.10
2018-07-04T16:54:45.809Z,22.90
2018-07-04T16:57:37.298Z,22.90
2018-07-04T17:00:28.433Z,23.10
2018-07-04T17:03:19.749Z,23.40
2018-07-04T17:08:56.318Z,23.20
2018-07-04T17:11:48.037Z,23.30
2018-07-04T17:14:39.107Z,22.60
2018-07-04T17:17:30.173Z,22.50
2018-07-04T17:20:21.469Z,22.70
2018-07-04T17:25:58.077Z,22.60
2018-07-04T17:28:49.382Z,22.70
2018-07-04T17:31:40.662Z,22.70
2018-07-04T17:34:31.900Z,22.70
2018-07-04T17:37:23.084Z,22.80
2018-07-04T17:40:14.170Z,22.70
2018-07-04T17:43:05.434Z,22.70
2018-07-04T17:45:56.770Z,22.80
2018-07-04T17:48:47.907Z,23.10
2018-07-04T17:51:39.099Z,23.40
2018-07-04T17:54:30.058Z,23.80
2018-07-04T17:57:21.509Z,24.10
2018-07-04T18:00:12.741Z,24.10
2018-07-04T18:03:04.103Z,24.30
2018-07-04T18:05:55.407Z,24.60
2018-07-04T18:08:46.712Z,25.00
2018-07-04T18:11:38.069Z,24.80
2018-07-04T18:14:29.296Z,25.00
2018-07-04T18:17:20.455Z,25.30
2018-07-04T18:20:12.076Z,25.60
2018-07-04T18:23:03.239Z,25.90
2018-07-04T18:31:25.498Z,26.30
2018-07-04T18:34:16.619Z,26.40
2018-07-04T18:37:07.850Z,26.60
2018-07-04T18:39:59.178Z,26.70
2018-07-04T18:48:21.362Z,26.20
2018-07-04T18:51:12.555Z,26.10
2018-07-04T18:54:03.820Z,25.30
2018-07-04T18:56:54.942Z,26.20
2018-07-04T18:59:46.217Z,26.30
2018-07-04T19:02:37.491Z,26.50
2018-07-04T19:05:28.546Z,26.50
2018-07-04T19:08:19.738Z,26.50
2018-07-04T19:11:11.055Z,26.80
2018-07-04T19:14:02.145Z,27.00
2018-07-04T19:16:53.432Z,27.50
2018-07-04T19:19:44.617Z,27.50
2018-07-04T19:22:35.814Z,27.60
2018-07-04T19:25:27.294Z,27.90
2018-07-04T19:28:18.553Z,28.20
2018-07-04T19:31:09.689Z,29.10
2018-07-04T19:34:00.977Z,28.70
2018-07-04T19:36:52.357Z,28.60
2018-07-04T19:39:43.467Z,28.60
2018-07-04T19:42:34.714Z,29.20
2018-07-04T19:45:26.096Z,29.40
2018-07-04T19:48:17.165Z,29.80
2018-07-04T19:51:08.420Z,30.00
2018-07-04T19:53:59.686Z,30.30
2018-07-04T19:56:50.999Z,30.90
2018-07-04T19:59:42.398Z,31.40
2018-07-04T20:05:19.151Z,31.80
2018-07-04T20:08:10.415Z,32.10
2018-07-04T20:11:01.625Z,32.40
2018-07-04T20:13:52.805Z,32.70
2018-07-04T20:16:44.227Z,32.90
2018-07-04T20:19:35.616Z,33.20
2018-07-04T20:22:26.757Z,33.70
2018-07-04T20:25:17.918Z,33.70
2018-07-04T20:28:09.235Z,33.90
2018-07-04T20:31:00.515Z,34.30
2018-07-04T20:33:51.702Z,34.50
2018-07-04T20:36:43.007Z,34.70
2018-07-04T20:39:34.274Z,34.70
2018-07-04T20:42:25.490Z,34.90
2018-07-04T20:45:16.767Z,35.30
2018-07-04T20:48:08.010Z,35.40
2018-07-04T20:50:59.433Z,35.50
2018-07-04T20:56:36.212Z,35.70
2018-07-04T21:02:13.083Z,35.90
2018-07-04T21:05:04.338Z,35.90
2018-07-04T21:07:55.593Z,35.50
2018-07-04T21:10:46.876Z,36.50
2018-07-04T21:13:38.090Z,36.70
2018-07-04T21:16:29.206Z,37.50
2018-07-04T21:19:20.503Z,37.00
2018-07-04T21:22:11.586Z,37.30
2018-07-04T21:25:02.865Z,37.50
2018-07-04T21:27:54.178Z,37.90
2018-07-04T21:30:45.550Z,38.40
2018-07-04T21:33:36.818Z,39.00
2018-07-04T21:36:28.098Z,39.60
2018-07-04T21:42:04.941Z,40.10
2018-07-04T21:44:56.110Z,40.30
2018-07-04T21:47:47.305Z,40.80
2018-07-04T21:50:38.646Z,41.20
2018-07-04T21:53:29.989Z,41.20
2018-07-04T21:56:21.100Z,41.40
2018-07-04T21:59:12.409Z,41.80
2018-07-04T22:02:03.795Z,42.00
2018-07-04T22:04:55.051Z,42.10
2018-07-04T22:07:46.229Z,42.70
2018-07-04T22:10:37.535Z,42.90
2018-07-04T22:13:28.696Z,43.30
2018-07-04T22:16:20.203Z,43.30
2018-07-04T22:19:11.469Z,43.50
2018-07-04T22:22:02.763Z,43.80
2018-07-04T22:24:54.053Z,44.00
2018-07-04T22:27:45.411Z,44.20
2018-07-04T22:30:36.629Z,44.40
2018-07-04T22:33:28.004Z,44.90
2018-07-04T22:36:19.009Z,45.20
2018-07-04T22:39:10.107Z,45.30
2018-07-04T22:42:01.336Z,45.80
2018-07-04T22:44:52.632Z,45.80
2018-07-04T22:47:43.815Z,46.10
2018-07-04T22:50:35.127Z,46.30
2018-07-04T22:53:26.400Z,46.40
2018-07-04T22:56:17.706Z,46.70
2018-07-04T22:59:08.772Z,47.30
2018-07-04T23:02:00.169Z,47.90
2018-07-04T23:04:51.387Z,47.90
2018-07-04T23:07:42.709Z,48.00
2018-07-04T23:10:33.927Z,48.20
2018-07-04T23:13:25.061Z,48.20
2018-07-04T23:16:16.156Z,48.40
2018-07-04T23:19:07.482Z,48.60
2018-07-04T23:21:58.858Z,48.60
2018-07-04T23:24:50.056Z,48.80
2018-07-04T23:27:41.246Z,48.90
2018-07-04T23:30:32.308Z,49.10
2018-07-04T23:33:23.428Z,49.70
2018-07-04T23:36:14.694Z,49.80
2018-07-04T23:39:06.020Z,50.10
2018-07-04T23:41:57.181Z,50.20
2018-07-04T23:44:48.373Z,50.20
2018-07-04T23:47:39.573Z,50.50
2018-07-04T23:53:16.135Z,50.70
